Aviation Digital Data Service (ADDS)

Output produced by METARs form (1122 UTC 28 September 2021)
found at http://www.aviationweather.gov/metar/data/
 
VTSG 281100Z 21005KT 9999 FEW018CB BKN020 29/25 Q1006 NOSIG
VTSG 281000Z 23007KT 200V260 9999 SCT020 30/24 Q1006 NOSIG
VTSG 280900Z 21008KT 190V250 9999 -RA BKN020 30/25 Q1006 NOSIG
VTSG 280800Z 32007KT 9999 BKN020 30/25 Q1007 NOSIG
VTSG 280700Z 21010KT 9999 4000N -RA BKN020 31/25 Q1007 NOSIG
VTSG 280600Z 19007KT 160V220 9999 BKN020 31/25 Q1008 NOSIG
VTSG 280500Z 25006KT 220V280 9999 BKN020 30/25 Q1009 NOSIG
VTSG 280400Z 23003KT 160V320 9999 BKN020 30/24 Q1010 NOSIG
VTSG 280300Z 31003KT 240V030 9999 SCT020 30/25 Q1011 NOSIG
VTSG 280200Z VRB02KT 9999 FEW010 27/25 Q1011 NOSIG
VTSG 280100Z VRB02KT 9000 3000NW FEW003 BKN080 25/25 Q1011 NOSIG
VTSG 280000Z VRB01KT 4000 BR FEW020 BKN050 24/24 Q1010 BECMG TL0130 8000 NSW
VTSG 272300Z VRB01KT 4000 BR FEW020 23/23 Q1009 NOSIG
VTSG 272200Z 32002KT 7000 FEW020 24/23 Q1008 NOSIG
VTSG 272100Z 00000KT 9999 FEW020 24/24 Q1008 NOSIG
VTSG 272000Z VRB01KT 9999 FEW020 24/24 Q1009 NOSIG
VTSG 271900Z 00000KT 9999 FEW020 24/24 Q1009 NOSIG
VTSG 271800Z 06002KT 9999 FEW020 24/24 Q1010 NOSIG
VTSG 271700Z 00000KT 9999 FEW020 25/24 Q1011 NOSIG
VTSG 271600Z 00000KT 9999 FEW020 25/24 Q1011 NOSIG
VTSG 271500Z VRB02KT 9999 FEW020 25/24 Q1011 NOSIG
VTSG 271400Z 35003KT 9999 FEW020 25/24 Q1010 NOSIG
VTSG 271300Z 33003KT 300V030 9999 FEW020 SCT100 25/24 Q1008 NOSIG
VTSG 271200Z 27003KT 220V300 9999 FEW020 BKN100 26/24 Q1007 NOSIG
TAF VTSG 280500Z 2806/2906 28006KT 9999 FEW020 
     TEMPO 2806/2812 28015G30KT 3000 TSRA FEW016CB SCT020 BKN100 
     BECMG 2812/2814 00000KT 
     BECMG 2902/2904 28006KT